Sweet Spot — WDF3145 — position and weather

sailwx.info

Track history (hours):
 
Tides and Currents Weather Stations Pressure Air Temp Water Temp Dewpoint Dewpoint Depression Visibility Wind Speed Wind Dir Waves Ship Positions

Sweet Spot

Owner: Verneuil Jr., Vincent S, Port Townsend, WA. More information available from US FCC via Universal Licensing System and Coast Guard Vessel Documentation Center.

Last reported at 2017-Jun-30 20:50 UTC. Time now 2017-Aug-24 03:04 UTC.
Position N 48°40' W 123°11'.
Warning: this ship's position is 54 days out of date.

Length 12 m.

Type: Pleasure craft. MMSI: 367436440.

Date/timePositionNaut miles runAvg speedWind from/ knotsBaromVisibWave heightAir tempDewpointWater temp
2017-Jun-30 20:50N 48°40' W 123°11'2 5.8
2017-Jun-30 20:30N 48°38' W 123°10'2 2.5
2017-Jun-30 19:47N 48°37' W 123°10'1 4.1
2017-Jun-30 19:27N 48°38' W 123°11'5 6.9
2017-Jun-30 18:45N 48°41' W 123°16'4 7.2
2017-Jun-30 18:16N 48°44' W 123°18'16 0.3
2017-Jun-28 17:48N 48°55' W 123°37'  
2017-Jun-25 23:29N 48°46' W 123°20'5 3.6
2017-Jun-25 22:05N 48°44' W 123°13'1 7.6
2017-Jun-25 21:59N 48°43' W 123°14'4 8.5
2017-Jun-25 21:30N 48°39' W 123°14'4 7.5
2017-Jun-25 21:00N 48°35' W 123°13'3 6.7
2017-Jun-25 20:29N 48°32' W 123°11'2 4.7
2017-Jun-25 20:00N 48°30' W 123°10'2 4.4
2017-Jun-25 19:31N 48°28' W 123°08'2 3.7
2017-Jun-25 19:00N 48°27' W 123°07'2 3.8
2017-Jun-25 18:30N 48°25' W 123°05'  
Track history (hours):
 
Tides and Currents Weather Stations Pressure Air Temp Water Temp Dewpoint Dewpoint Depression Visibility Wind Speed Wind Dir Waves Ship Positions

Sweet Spot

Owner: Verneuil Jr., Vincent S, Port Townsend, WA. More information available from US FCC via Universal Licensing System and Coast Guard Vessel Documentation Center.

Last reported at 2017-Jun-30 20:50 UTC. Time now 2017-Aug-24 03:04 UTC.
Position N 48°40' W 123°11'.
Warning: this ship's position is 54 days out of date.

Length 12 m.

Type: Pleasure craft. MMSI: 367436440.

Date/timePositionNaut miles runAvg speedWind from/ knotsBaromVisibWave heightAir tempDewpointWater temp
2017-Jun-30 20:50N 48°40' W 123°11'2 5.8
2017-Jun-30 20:30N 48°38' W 123°10'2 2.5
2017-Jun-30 19:47N 48°37' W 123°10'1 4.1
2017-Jun-30 19:27N 48°38' W 123°11'5 6.9
2017-Jun-30 18:45N 48°41' W 123°16'4 7.2
2017-Jun-30 18:16N 48°44' W 123°18'16 0.3
2017-Jun-28 17:48N 48°55' W 123°37'  
2017-Jun-25 23:29N 48°46' W 123°20'5 3.6
2017-Jun-25 22:05N 48°44' W 123°13'1 7.6
2017-Jun-25 21:59N 48°43' W 123°14'4 8.5
2017-Jun-25 21:30N 48°39' W 123°14'4 7.5
2017-Jun-25 21:00N 48°35' W 123°13'3 6.7
2017-Jun-25 20:29N 48°32' W 123°11'2 4.7
2017-Jun-25 20:00N 48°30' W 123°10'2 4.4
2017-Jun-25 19:31N 48°28' W 123°08'2 3.7
2017-Jun-25 19:00N 48°27' W 123°07'2 3.8
2017-Jun-25 18:30N 48°25' W 123°05'  

Dump ship's entire track history